createdAt,value
2019-03-09T00:00:34.115Z,21.90
2019-03-09T00:03:09.079Z,21.90
2019-03-09T00:05:43.776Z,21.90
2019-03-09T00:08:18.542Z,21.90
2019-03-09T00:10:53.755Z,21.80
2019-03-09T00:13:28.436Z,21.80
2019-03-09T00:16:03.435Z,21.70
2019-03-09T00:18:37.810Z,21.70
2019-03-09T00:21:13.953Z,21.80
2019-03-09T00:24:02.350Z,21.70
2019-03-09T00:26:38.916Z,21.60
2019-03-09T00:29:18.350Z,21.60
2019-03-09T00:31:54.902Z,21.60
2019-03-09T00:34:29.953Z,21.60
2019-03-09T00:37:05.075Z,21.60
2019-03-09T00:39:39.860Z,21.50
2019-03-09T00:42:14.632Z,21.50
2019-03-09T00:44:49.806Z,21.50
2019-03-09T00:47:24.540Z,21.40
2019-03-09T00:49:58.930Z,21.40
2019-03-09T00:52:33.645Z,21.40
2019-03-09T00:55:11.269Z,21.40
2019-03-09T00:57:45.899Z,21.30
2019-03-09T01:00:20.791Z,21.30
2019-03-09T01:02:55.226Z,21.20
2019-03-09T01:05:29.954Z,21.30
2019-03-09T01:08:04.631Z,21.20
2019-03-09T01:10:39.331Z,21.20
2019-03-09T01:13:14.256Z,21.20
2019-03-09T01:15:48.899Z,21.10
2019-03-09T01:18:24.048Z,21.10
2019-03-09T01:20:58.980Z,21.10
2019-03-09T01:23:33.668Z,21.00
2019-03-09T01:26:08.285Z,21.00
2019-03-09T01:28:43.008Z,21.00
2019-03-09T01:31:17.684Z,21.00
2019-03-09T01:33:52.116Z,20.90
2019-03-09T01:36:28.159Z,20.90
2019-03-09T01:39:03.081Z,20.90
2019-03-09T01:41:39.633Z,20.80
2019-03-09T01:44:14.331Z,20.90
2019-03-09T01:46:49.015Z,20.80
2019-03-09T01:49:23.745Z,20.80
2019-03-09T01:51:58.849Z,20.70
2019-03-09T01:54:33.379Z,20.70
2019-03-09T01:57:08.271Z,20.70
2019-03-09T01:59:43.299Z,20.70
2019-03-09T02:02:18.253Z,20.60
2019-03-09T02:04:53.275Z,20.60
2019-03-09T02:07:28.148Z,20.60
2019-03-09T02:10:02.514Z,20.50
2019-03-09T02:12:38.449Z,20.50
2019-03-09T02:15:15.074Z,20.50
2019-03-09T02:17:49.467Z,20.50
2019-03-09T02:20:24.396Z,20.50
2019-03-09T02:22:59.281Z,20.50
2019-03-09T02:25:33.984Z,20.40
2019-03-09T02:28:08.877Z,20.40
2019-03-09T02:30:43.352Z,20.40
2019-03-09T02:33:18.242Z,20.40
2019-03-09T02:35:53.293Z,20.30
2019-03-09T02:38:32.283Z,20.30
2019-03-09T02:41:06.034Z,20.30
2019-03-09T02:43:41.431Z,20.30
2019-03-09T02:46:16.352Z,20.30
2019-03-09T02:48:51.367Z,20.30
2019-03-09T02:51:26.060Z,20.30
2019-03-09T02:54:01.316Z,20.20
2019-03-09T02:56:36.379Z,20.20
2019-03-09T02:59:11.268Z,20.20
2019-03-09T03:01:50.815Z,20.20
2019-03-09T03:04:25.499Z,20.20
2019-03-09T03:07:00.284Z,20.10
2019-03-09T03:09:35.467Z,20.10
2019-03-09T03:12:10.442Z,20.10
2019-03-09T03:14:45.336Z,20.10
2019-03-09T03:17:20.067Z,20.10
2019-03-09T03:19:54.946Z,20.10
2019-03-09T03:22:29.452Z,20.00
2019-03-09T03:25:05.919Z,20.00
2019-03-09T03:27:40.416Z,20.00
2019-03-09T03:30:15.118Z,20.00
2019-03-09T03:32:50.451Z,20.00
2019-03-09T03:35:25.329Z,20.00
2019-03-09T03:37:59.754Z,19.90
2019-03-09T03:40:34.432Z,19.90
2019-03-09T03:43:09.142Z,19.90
2019-03-09T03:45:44.047Z,19.90
2019-03-09T03:48:18.587Z,19.90
2019-03-09T03:50:53.499Z,19.80
2019-03-09T03:53:28.234Z,19.80
2019-03-09T03:56:03.189Z,19.80
2019-03-09T03:58:38.322Z,19.80
2019-03-09T04:01:13.963Z,19.80
2019-03-09T04:03:48.858Z,19.80
2019-03-09T04:06:23.813Z,19.80
2019-03-09T04:08:58.831Z,19.80
2019-03-09T04:11:33.551Z,19.70
2019-03-09T04:14:08.740Z,19.70
2019-03-09T04:16:43.086Z,19.70
2019-03-09T04:19:19.175Z,19.70
2019-03-09T04:21:53.928Z,19.60
2019-03-09T04:24:28.679Z,19.60
2019-03-09T04:27:04.308Z,19.60
2019-03-09T04:29:38.995Z,19.60
2019-03-09T04:32:14.367Z,19.60
2019-03-09T04:34:48.973Z,19.50
2019-03-09T04:37:23.849Z,19.60
2019-03-09T04:39:58.256Z,19.50
2019-03-09T04:42:32.971Z,19.50
2019-03-09T04:45:09.921Z,19.50
2019-03-09T04:47:44.911Z,19.50
2019-03-09T04:50:19.641Z,19.50
2019-03-09T04:52:54.967Z,19.50
2019-03-09T04:55:29.976Z,19.50
2019-03-09T04:58:04.717Z,19.40
2019-03-09T05:00:39.420Z,19.40
2019-03-09T05:03:14.499Z,19.40
2019-03-09T05:05:48.974Z,19.40
2019-03-09T05:08:27.119Z,19.40
2019-03-09T05:11:05.178Z,19.40
2019-03-09T05:13:41.483Z,19.40
2019-03-09T05:16:16.186Z,19.40
2019-03-09T05:18:51.084Z,19.30
2019-03-09T05:21:26.096Z,19.40
2019-03-09T05:24:00.793Z,19.40
2019-03-09T05:26:36.096Z,19.40
2019-03-09T05:29:11.026Z,19.40
2019-03-09T05:31:45.745Z,19.40
2019-03-09T05:34:20.182Z,19.40
2019-03-09T05:36:54.900Z,19.40
2019-03-09T05:39:29.852Z,19.40
2019-03-09T05:42:04.220Z,19.60
2019-03-09T05:44:38.904Z,19.70
2019-03-09T05:47:14.220Z,19.70
2019-03-09T05:49:49.724Z,19.90
2019-03-09T05:52:28.914Z,20.00
2019-03-09T05:55:06.015Z,20.20
2019-03-09T05:57:40.739Z,20.20
2019-03-09T06:00:15.873Z,20.30
2019-03-09T06:02:50.312Z,20.30
2019-03-09T06:05:33.298Z,20.30
2019-03-09T06:08:08.569Z,20.40
2019-03-09T06:10:43.260Z,20.40
2019-03-09T06:13:18.455Z,20.50
2019-03-09T06:15:53.142Z,20.40
2019-03-09T06:18:28.140Z,20.50
2019-03-09T06:21:02.454Z,20.50
2019-03-09T06:23:37.526Z,20.50
2019-03-09T06:26:14.521Z,20.50
2019-03-09T06:28:49.288Z,20.40
2019-03-09T06:31:23.952Z,20.10
2019-03-09T06:33:58.721Z,20.10
2019-03-09T06:36:42.635Z,20.10
2019-03-09T06:39:17.396Z,20.00
2019-03-09T06:41:55.361Z,20.00
2019-03-09T06:44:30.030Z,20.20
2019-03-09T06:47:05.003Z,20.40
2019-03-09T06:49:39.471Z,20.20
2019-03-09T06:52:14.593Z,20.10
2019-03-09T06:54:50.206Z,20.10
2019-03-09T06:57:24.597Z,20.40
2019-03-09T06:59:59.522Z,20.50
2019-03-09T07:02:34.003Z,20.60
2019-03-09T07:05:08.725Z,20.70
2019-03-09T07:07:43.814Z,20.70
2019-03-09T07:10:19.045Z,20.90
2019-03-09T07:12:53.891Z,20.80
2019-03-09T07:15:31.721Z,21.10
2019-03-09T07:18:08.817Z,21.10
2019-03-09T07:20:43.954Z,21.10
2019-03-09T07:23:18.843Z,21.10
2019-03-09T07:25:53.342Z,21.10
2019-03-09T07:28:27.956Z,21.20
2019-03-09T07:31:02.686Z,21.20
2019-03-09T07:33:37.404Z,21.30
2019-03-09T07:36:13.033Z,21.30
2019-03-09T07:38:49.359Z,21.20
2019-03-09T07:41:24.052Z,21.20
2019-03-09T07:43:58.938Z,21.10
2019-03-09T07:46:33.990Z,21.20
2019-03-09T07:49:08.885Z,21.10
2019-03-09T07:51:43.312Z,21.10
2019-03-09T07:54:17.996Z,21.20
2019-03-09T07:56:53.889Z,21.20
2019-03-09T07:59:28.292Z,21.30
2019-03-09T08:02:03.013Z,21.30
2019-03-09T08:04:38.006Z,21.30
2019-03-09T08:07:14.969Z,21.10
2019-03-09T08:09:49.904Z,21.30
2019-03-09T08:12:24.458Z,21.30
2019-03-09T08:14:59.189Z,21.30
2019-03-09T08:17:34.264Z,21.30
2019-03-09T08:20:11.311Z,21.30
2019-03-09T08:22:46.153Z,21.20
2019-03-09T08:25:23.401Z,21.30
2019-03-09T08:27:59.385Z,21.40
2019-03-09T08:30:34.004Z,21.30
2019-03-09T08:33:08.787Z,21.30
2019-03-09T08:35:43.708Z,21.20
2019-03-09T08:38:18.435Z,21.20
2019-03-09T08:40:54.205Z,21.30
2019-03-09T08:43:28.633Z,21.30
2019-03-09T08:46:03.332Z,21.20
2019-03-09T08:48:39.056Z,20.90
2019-03-09T08:51:14.310Z,20.90
2019-03-09T08:53:49.055Z,20.90
2019-03-09T08:56:23.545Z,20.90
2019-03-09T08:58:58.243Z,20.90
2019-03-09T09:01:33.091Z,20.90
2019-03-09T09:04:07.565Z,21.10
2019-03-09T09:06:42.275Z,21.20
2019-03-09T09:09:17.186Z,21.10
2019-03-09T09:11:51.673Z,21.10
2019-03-09T09:14:27.469Z,21.20
2019-03-09T09:17:02.578Z,21.30
2019-03-09T09:19:37.641Z,21.20
2019-03-09T09:22:13.888Z,21.00
2019-03-09T09:24:48.622Z,21.20
2019-03-09T09:27:24.133Z,21.30
2019-03-09T09:29:59.745Z,21.30
2019-03-09T09:32:34.620Z,21.20
2019-03-09T09:35:11.628Z,21.20
2019-03-09T09:37:46.338Z,21.30
2019-03-09T09:40:22.880Z,21.30
2019-03-09T09:42:57.690Z,21.20
2019-03-09T09:45:32.474Z,21.10
2019-03-09T09:48:07.586Z,20.90
2019-03-09T09:50:42.635Z,21.10
2019-03-09T09:53:17.522Z,21.10
2019-03-09T09:55:51.950Z,21.20
2019-03-09T09:58:26.837Z,20.90
2019-03-09T10:01:01.486Z,20.80
2019-03-09T10:03:36.560Z,20.80
2019-03-09T10:06:10.995Z,20.80
2019-03-09T10:08:46.730Z,20.90
2019-03-09T10:11:21.890Z,20.90
2019-03-09T10:13:56.786Z,21.00
2019-03-09T10:16:31.507Z,21.00
2019-03-09T10:19:06.456Z,21.00
2019-03-09T10:21:40.988Z,21.00
2019-03-09T10:24:15.668Z,21.00
2019-03-09T10:26:50.691Z,21.00
2019-03-09T10:29:25.882Z,21.00
2019-03-09T10:32:00.852Z,21.00
2019-03-09T10:34:35.617Z,20.90
2019-03-09T10:37:10.761Z,21.00
2019-03-09T10:39:45.737Z,21.00
2019-03-09T10:42:20.093Z,21.10
2019-03-09T10:44:54.808Z,21.10
2019-03-09T10:47:29.507Z,21.20
2019-03-09T10:50:09.697Z,21.20
2019-03-09T10:52:44.212Z,21.30
2019-03-09T10:55:23.573Z,21.30
2019-03-09T10:57:57.323Z,21.20
2019-03-09T11:00:39.589Z,21.40
2019-03-09T11:03:14.743Z,21.40
2019-03-09T11:05:49.090Z,21.40
2019-03-09T11:08:23.797Z,21.40
2019-03-09T11:10:58.781Z,21.40
2019-03-09T11:13:33.901Z,21.40
2019-03-09T11:16:08.976Z,21.30
2019-03-09T11:18:43.671Z,21.30
2019-03-09T11:21:18.241Z,21.30
2019-03-09T11:23:53.296Z,21.40
2019-03-09T11:26:28.027Z,21.50
2019-03-09T11:29:02.874Z,21.60
2019-03-09T11:31:37.252Z,21.50
2019-03-09T11:34:14.028Z,21.50
2019-03-09T11:36:48.823Z,21.70
2019-03-09T11:39:23.909Z,21.60
2019-03-09T11:41:58.310Z,21.70
2019-03-09T11:44:33.029Z,21.60
2019-03-09T11:47:07.740Z,21.60
2019-03-09T11:49:42.467Z,21.50
2019-03-09T11:52:20.535Z,21.60
2019-03-09T11:54:54.071Z,21.70
2019-03-09T11:57:28.750Z,21.70
2019-03-09T12:00:06.824Z,21.80
2019-03-09T12:02:41.298Z,21.80
2019-03-09T12:05:16.099Z,21.70
2019-03-09T12:07:51.211Z,21.70
2019-03-09T12:10:26.266Z,21.80
2019-03-09T12:13:01.008Z,21.90
2019-03-09T12:15:36.138Z,21.90
2019-03-09T12:18:10.519Z,21.80
2019-03-09T12:20:45.329Z,21.90
2019-03-09T12:23:21.862Z,21.90
2019-03-09T12:25:56.782Z,21.90
2019-03-09T12:28:31.428Z,21.90
2019-03-09T12:31:06.152Z,21.70
2019-03-09T12:33:41.104Z,21.60
2019-03-09T12:36:16.429Z,21.60
2019-03-09T12:38:51.449Z,21.50
2019-03-09T12:41:26.324Z,21.40
2019-03-09T12:44:01.014Z,21.50
2019-03-09T12:46:36.272Z,21.60
2019-03-09T12:49:11.358Z,21.50
2019-03-09T12:51:46.152Z,21.70
2019-03-09T12:54:20.935Z,21.80
2019-03-09T12:56:55.907Z,21.80
2019-03-09T12:59:30.346Z,21.80
2019-03-09T13:02:05.277Z,21.90
2019-03-09T13:04:41.338Z,21.80
2019-03-09T13:07:15.823Z,21.80
2019-03-09T13:09:50.720Z,21.80
2019-03-09T13:12:25.549Z,21.80
2019-03-09T13:15:00.345Z,21.80
2019-03-09T13:17:35.466Z,21.80
2019-03-09T13:20:12.005Z,21.90
2019-03-09T13:22:46.919Z,22.00
2019-03-09T13:25:21.589Z,22.10
2019-03-09T13:27:56.293Z,22.10
2019-03-09T13:30:31.475Z,22.40
2019-03-09T13:33:06.577Z,22.60
2019-03-09T13:35:41.279Z,22.70
2019-03-09T13:38:15.829Z,22.70
2019-03-09T13:40:50.674Z,22.90
2019-03-09T13:43:25.706Z,23.10
2019-03-09T13:46:00.387Z,23.20
2019-03-09T13:48:35.401Z,23.10
2019-03-09T13:51:09.797Z,23.00
2019-03-09T13:53:44.720Z,22.80
2019-03-09T13:56:19.590Z,22.70
2019-03-09T13:58:54.314Z,22.70
2019-03-09T14:01:30.420Z,22.60
2019-03-09T14:04:05.651Z,22.60
2019-03-09T14:06:40.946Z,22.50
2019-03-09T14:09:15.878Z,22.40
2019-03-09T14:11:50.776Z,22.40
2019-03-09T14:14:25.488Z,22.30
2019-03-09T14:17:00.396Z,22.20
2019-03-09T14:19:34.851Z,22.10
2019-03-09T14:22:09.540Z,22.10
2019-03-09T14:24:44.522Z,22.10
2019-03-09T14:27:19.634Z,22.10
2019-03-09T14:29:54.059Z,22.10
2019-03-09T14:32:28.736Z,22.20
2019-03-09T14:35:05.816Z,22.30
2019-03-09T14:37:40.509Z,22.20
2019-03-09T14:40:17.099Z,22.30
2019-03-09T14:42:51.888Z,22.30
2019-03-09T14:45:26.853Z,22.20
2019-03-09T14:48:01.851Z,22.10
2019-03-09T14:50:36.632Z,22.00
2019-03-09T14:53:11.606Z,22.10
2019-03-09T14:55:46.614Z,22.00
2019-03-09T14:58:21.826Z,21.90
2019-03-09T15:00:56.832Z,21.80
2019-03-09T15:03:31.805Z,21.90
2019-03-09T15:06:06.807Z,21.90
2019-03-09T15:08:41.801Z,21.90
2019-03-09T15:11:16.223Z,21.80
2019-03-09T15:13:52.466Z,21.70
2019-03-09T15:16:27.401Z,21.70
2019-03-09T15:19:02.286Z,21.90
2019-03-09T15:21:37.149Z,21.80
2019-03-09T15:24:12.053Z,21.70
2019-03-09T15:26:47.390Z,21.50
2019-03-09T15:29:22.295Z,21.50
2019-03-09T15:31:57.140Z,21.60
2019-03-09T15:34:32.040Z,21.50
2019-03-09T15:37:07.041Z,21.60
2019-03-09T15:39:41.857Z,21.70
2019-03-09T15:42:16.433Z,21.70
2019-03-09T15:44:51.467Z,21.70
2019-03-09T15:47:26.268Z,21.70
2019-03-09T15:50:01.019Z,21.80
2019-03-09T15:52:36.276Z,21.80
2019-03-09T15:55:11.534Z,22.00
2019-03-09T15:57:46.465Z,22.10
2019-03-09T16:00:22.398Z,22.10
2019-03-09T16:02:57.316Z,22.00
2019-03-09T16:05:32.294Z,22.00
2019-03-09T16:08:06.990Z,21.90
2019-03-09T16:10:42.088Z,21.90
2019-03-09T16:13:17.156Z,21.80
2019-03-09T16:15:51.623Z,21.80
2019-03-09T16:18:26.393Z,21.80
2019-03-09T16:21:01.088Z,21.90
2019-03-09T16:23:36.080Z,21.60
2019-03-09T16:26:11.058Z,21.70
2019-03-09T16:28:46.419Z,21.70
2019-03-09T16:31:21.288Z,21.80
2019-03-09T16:33:56.286Z,21.80
2019-03-09T16:36:30.976Z,21.70
2019-03-09T16:39:07.390Z,21.60
2019-03-09T16:41:42.346Z,21.70
2019-03-09T16:44:17.062Z,21.50
2019-03-09T16:46:52.031Z,21.30
2019-03-09T16:49:26.459Z,21.40
2019-03-09T16:52:01.138Z,21.30
2019-03-09T16:54:36.001Z,21.40
2019-03-09T16:57:11.047Z,21.50
2019-03-09T16:59:45.666Z,21.50
2019-03-09T17:02:27.518Z,21.20
2019-03-09T17:04:59.160Z,21.40
2019-03-09T17:07:33.201Z,21.60
2019-03-09T17:10:09.071Z,21.50
2019-03-09T17:12:43.552Z,21.50
2019-03-09T17:15:20.111Z,21.40
2019-03-09T17:17:54.877Z,21.40
2019-03-09T17:20:29.679Z,21.20
2019-03-09T17:23:04.404Z,21.50
2019-03-09T17:25:39.181Z,21.50
2019-03-09T17:28:14.151Z,21.60
2019-03-09T17:30:48.635Z,21.70
2019-03-09T17:33:23.259Z,22.00
2019-03-09T17:35:58.310Z,22.10
2019-03-09T17:38:32.740Z,22.20
2019-03-09T17:41:07.454Z,22.10
2019-03-09T17:43:41.853Z,22.10
2019-03-09T17:46:16.581Z,22.30
2019-03-09T17:48:51.329Z,22.40
2019-03-09T17:51:26.265Z,22.50
2019-03-09T17:54:00.658Z,22.60
2019-03-09T17:56:35.655Z,22.60
2019-03-09T17:59:10.616Z,22.60
2019-03-09T18:01:45.343Z,22.50
2019-03-09T18:04:19.776Z,22.60
2019-03-09T18:06:54.773Z,22.60
2019-03-09T18:09:29.790Z,22.60
2019-03-09T18:12:04.501Z,22.60
2019-03-09T18:14:39.574Z,22.60
2019-03-09T18:17:15.734Z,22.60
2019-03-09T18:19:50.771Z,22.70
2019-03-09T18:22:25.796Z,22.70
2019-03-09T18:25:00.568Z,22.70
2019-03-09T18:27:35.400Z,22.60
2019-03-09T18:30:11.693Z,22.70
2019-03-09T18:32:46.742Z,22.60
2019-03-09T18:35:21.652Z,22.70
2019-03-09T18:37:56.707Z,22.60
2019-03-09T18:40:31.605Z,22.60
2019-03-09T18:43:06.093Z,22.60
2019-03-09T18:45:40.769Z,22.60
2019-03-09T18:48:17.132Z,22.50
2019-03-09T18:50:51.804Z,22.60
2019-03-09T18:53:26.551Z,22.50
2019-03-09T18:56:01.630Z,22.50
2019-03-09T18:58:36.813Z,22.40
2019-03-09T19:01:11.771Z,22.30
2019-03-09T19:03:46.855Z,22.30
2019-03-09T19:06:23.141Z,22.40
2019-03-09T19:08:57.980Z,22.30
2019-03-09T19:11:33.465Z,22.30
2019-03-09T19:14:08.645Z,22.10
2019-03-09T19:16:43.125Z,22.20
2019-03-09T19:19:18.091Z,22.10
2019-03-09T19:21:52.848Z,22.20
2019-03-09T19:24:27.612Z,22.20
2019-03-09T19:27:02.345Z,22.10
2019-03-09T19:29:37.141Z,22.10
2019-03-09T19:32:13.085Z,22.10
2019-03-09T19:34:48.126Z,22.10
2019-03-09T19:37:22.898Z,22.10
2019-03-09T19:39:57.713Z,22.20
2019-03-09T19:42:32.111Z,22.10
2019-03-09T19:45:12.035Z,22.20
2019-03-09T19:47:47.013Z,22.20
2019-03-09T19:50:23.395Z,22.30
2019-03-09T19:52:59.318Z,22.30
2019-03-09T19:55:34.871Z,22.40
2019-03-09T19:58:09.325Z,22.50
2019-03-09T20:00:45.560Z,22.50
2019-03-09T20:03:20.327Z,22.40
2019-03-09T20:05:55.511Z,22.60
2019-03-09T20:08:30.438Z,22.50
2019-03-09T20:11:05.335Z,22.50
2019-03-09T20:13:41.532Z,22.50
2019-03-09T20:16:16.363Z,22.50
2019-03-09T20:18:51.140Z,22.50
2019-03-09T20:21:26.403Z,22.40
2019-03-09T20:24:01.329Z,22.30
2019-03-09T20:26:36.445Z,22.30
2019-03-09T20:29:11.387Z,22.30
2019-03-09T20:31:47.008Z,22.30
2019-03-09T20:34:21.626Z,22.20
2019-03-09T20:36:56.427Z,22.20
2019-03-09T20:39:31.500Z,22.20
2019-03-09T20:42:06.609Z,22.30
2019-03-09T20:44:41.330Z,22.30
2019-03-09T20:47:16.343Z,22.30
2019-03-09T20:49:54.080Z,22.40
2019-03-09T20:52:29.152Z,22.40
2019-03-09T20:55:09.653Z,22.40
2019-03-09T20:57:44.431Z,22.50
2019-03-09T21:00:23.608Z,22.40
2019-03-09T21:02:58.502Z,22.40
2019-03-09T21:05:33.354Z,22.40
2019-03-09T21:08:07.899Z,22.40
2019-03-09T21:10:42.844Z,22.40
2019-03-09T21:13:18.306Z,22.40
2019-03-09T21:15:53.134Z,22.50
2019-03-09T21:18:27.652Z,22.40
2019-03-09T21:21:02.556Z,22.50
2019-03-09T21:23:37.524Z,22.40
2019-03-09T21:26:13.339Z,22.50
2019-03-09T21:28:48.352Z,22.50
2019-03-09T21:31:23.316Z,22.50
2019-03-09T21:33:59.726Z,22.50
2019-03-09T21:36:34.094Z,22.50
2019-03-09T21:39:08.819Z,22.60
2019-03-09T21:41:43.997Z,22.60
2019-03-09T21:44:18.645Z,22.60
2019-03-09T21:46:53.372Z,22.60
2019-03-09T21:49:28.678Z,22.70
2019-03-09T21:52:03.442Z,22.70
2019-03-09T21:54:38.266Z,22.70
2019-03-09T21:57:13.443Z,22.60
2019-03-09T21:59:48.319Z,22.50
2019-03-09T22:02:23.232Z,22.40
2019-03-09T22:04:57.843Z,22.40
2019-03-09T22:07:32.619Z,22.40
2019-03-09T22:10:09.497Z,22.40
2019-03-09T22:12:44.535Z,22.40
2019-03-09T22:15:19.626Z,22.40
2019-03-09T22:17:54.108Z,22.30
2019-03-09T22:20:28.846Z,22.30
2019-03-09T22:23:03.780Z,22.30
2019-03-09T22:25:38.762Z,22.30
2019-03-09T22:28:14.016Z,22.20
2019-03-09T22:30:48.765Z,22.30
2019-03-09T22:33:23.463Z,22.30
2019-03-09T22:35:58.612Z,22.30
2019-03-09T22:38:33.013Z,22.30
2019-03-09T22:41:07.741Z,22.30
2019-03-09T22:43:42.512Z,22.40
2019-03-09T22:46:17.658Z,22.40
2019-03-09T22:48:52.710Z,22.30
2019-03-09T22:51:27.631Z,22.40
2019-03-09T22:54:03.890Z,22.30
2019-03-09T22:56:38.749Z,22.30
2019-03-09T22:59:14.052Z,22.10
2019-03-09T23:01:48.856Z,21.90
2019-03-09T23:04:23.546Z,21.90
2019-03-09T23:06:58.640Z,21.80
2019-03-09T23:09:33.702Z,21.80
2019-03-09T23:12:08.864Z,21.80
2019-03-09T23:14:43.899Z,21.80
2019-03-09T23:17:18.637Z,21.80
2019-03-09T23:19:53.825Z,21.70
2019-03-09T23:22:29.049Z,21.70
2019-03-09T23:25:03.952Z,21.70
2019-03-09T23:27:39.048Z,21.70
2019-03-09T23:30:18.686Z,21.70
2019-03-09T23:32:53.263Z,21.70
2019-03-09T23:35:28.070Z,21.70
2019-03-09T23:38:02.799Z,21.60
2019-03-09T23:40:37.571Z,21.60
2019-03-09T23:43:13.403Z,21.50
2019-03-09T23:45:47.901Z,21.40
2019-03-09T23:48:22.841Z,21.40
2019-03-09T23:50:57.869Z,21.40
2019-03-09T23:53:32.595Z,21.40
2019-03-09T23:56:07.308Z,21.40
2019-03-09T23:58:43.460Z,21.30
